Time;durP1;ratioP1;P1;durP2;ratioP2;P2;SDS_P1;SDS_P2;PMS_P1;PMS_P2;Temp;Humidity;BMP_temperature;BMP_pressure;BME280_temperature;BME280_humidity;BME280_pressure;Samples;Min_cycle;Max_cycle;Signal;HPM_P1;HPM_P2
2024/01/08 00:00:27;;;;;;;6.77;3.10;;;-0.80;9.20;;;;;;5107577;28;20412;-79
2024/01/08 00:02:52;;;;;;;7.93;3.20;;;-0.90;12.70;;;;;;5103344;28;20417;-78
2024/01/08 00:05:18;;;;;;;6.93;3.35;;;-0.90;13.70;;;;;;5099180;28;20550;-78
2024/01/08 00:07:43;;;;;;;7.00;3.07;;;-0.90;14.70;;;;;;5101861;28;20398;-79
2024/01/08 00:10:10;;;;;;;6.85;3.40;;;-0.90;15.40;;;;;;5106842;28;20403;-78
2024/01/08 00:12:35;;;;;;;6.20;3.63;;;-1.00;16.00;;;;;;5101034;28;20796;-78
2024/01/08 00:15:01;;;;;;;6.35;3.58;;;-1.00;15.00;;;;;;5101096;28;20487;-78
2024/01/08 00:17:26;;;;;;;8.82;3.30;;;-1.00;16.00;;;;;;5093651;28;20914;-79
2024/01/08 00:19:52;;;;;;;6.97;3.53;;;-1.00;16.60;;;;;;5090778;28;20484;-78
2024/01/08 00:22:18;;;;;;;5.55;3.08;;;-1.00;16.10;;;;;;5090262;28;20899;-78
2024/01/08 00:24:43;;;;;;;6.55;3.40;;;-1.00;15.90;;;;;;5090575;28;20884;-79
2024/01/08 00:27:09;;;;;;;6.20;3.17;;;-1.00;17.00;;;;;;5089600;28;20405;-78
2024/01/08 00:29:34;;;;;;;6.83;3.83;;;-1.00;17.00;;;;;;5090231;28;20443;-78
2024/01/08 00:32:00;;;;;;;6.82;3.25;;;-1.00;16.90;;;;;;5090822;28;20487;-79
2024/01/08 00:34:27;;;;;;;7.93;3.70;;;-1.10;18.90;;;;;;5091077;28;20481;-79
2024/01/08 00:36:53;;;;;;;5.45;3.10;;;-1.10;20.20;;;;;;5090672;28;20399;-78
2024/01/08 00:39:18;;;;;;;8.57;3.63;;;-1.10;20.70;;;;;;5088998;28;20398;-78
2024/01/08 00:41:44;;;;;;;6.93;3.70;;;-1.10;20.80;;;;;;5089660;28;20400;-78
2024/01/08 00:44:09;;;;;;;7.85;3.70;;;-1.10;22.00;;;;;;5090545;28;20501;-79
2024/01/08 00:46:35;;;;;;;7.50;3.60;;;-1.20;22.70;;;;;;5090804;28;20793;-78
2024/01/08 00:49:01;;;;;;;6.57;3.37;;;-1.10;23.90;;;;;;5090366;28;20398;-78
2024/01/08 00:51:26;;;;;;;7.03;3.75;;;-1.10;25.20;;;;;;5089900;28;20392;-78
2024/01/08 00:53:52;;;;;;;6.63;3.80;;;-1.10;26.70;;;;;;5090406;28;20394;-79
2024/01/08 00:56:18;;;;;;;6.63;3.83;;;-1.00;27.50;;;;;;5089987;28;20417;-78
2024/01/08 00:58:44;;;;;;;6.00;3.60;;;-1.00;28.10;;;;;;5090409;28;21023;-79
2024/01/08 01:01:11;;;;;;;7.15;3.85;;;-0.90;27.50;;;;;;5089902;28;20905;-78
2024/01/08 01:03:37;;;;;;;6.70;3.60;;;-0.90;27.90;;;;;;5090854;28;20433;-78
2024/01/08 01:06:03;;;;;;;8.52;3.55;;;-0.80;28.10;;;;;;5090477;28;20451;-79
2024/01/08 01:08:28;;;;;;;6.90;3.40;;;-0.80;27.80;;;;;;5088754;28;20406;-78
2024/01/08 01:10:54;;;;;;;7.70;4.20;;;-0.80;27.90;;;;;;5091078;28;20396;-78
2024/01/08 01:13:20;;;;;;;7.63;4.40;;;-0.80;29.60;;;;;;5089639;28;20502;-78
2024/01/08 01:15:45;;;;;;;6.68;3.97;;;-0.70;29.70;;;;;;5088094;28;21116;-78
2024/01/08 01:18:11;;;;;;;7.95;4.18;;;-0.70;29.10;;;;;;5089609;28;20390;-78
2024/01/08 01:20:37;;;;;;;6.40;4.17;;;-0.70;30.20;;;;;;5089904;28;20398;-78
2024/01/08 01:23:03;;;;;;;7.10;4.33;;;-0.70;30.10;;;;;;5098920;28;20404;-78
2024/01/08 01:25:28;;;;;;;6.78;3.90;;;-0.70;31.30;;;;;;5095507;28;20817;-78
2024/01/08 01:27:54;;;;;;;7.60;4.18;;;-0.60;31.80;;;;;;5098298;28;20402;-79
2024/01/08 01:30:19;;;;;;;6.60;4.40;;;-0.70;31.20;;;;;;5089295;28;20881;-79
2024/01/08 01:32:45;;;;;;;6.78;4.30;;;-0.60;32.60;;;;;;5089195;28;20401;-79
2024/01/08 01:35:10;;;;;;;8.20;4.72;;;-0.60;33.80;;;;;;5088612;28;20924;-78
2024/01/08 01:37:36;;;;;;;7.87;4.67;;;-0.60;34.10;;;;;;5098573;28;20476;-79
2024/01/08 01:40:02;;;;;;;8.07;4.90;;;-0.60;34.40;;;;;;5107846;28;20493;-78
2024/01/08 01:42:28;;;;;;;8.33;4.70;;;-0.50;35.20;;;;;;5090884;28;20671;-78
2024/01/08 01:44:54;;;;;;;7.33;5.10;;;-0.50;36.00;;;;;;5106726;28;21047;-79
2024/01/08 01:47:21;;;;;;;9.05;4.82;;;-0.50;36.40;;;;;;5108502;27;21129;-78
2024/01/08 01:49:47;;;;;;;7.93;5.03;;;-0.50;37.00;;;;;;5090062;28;20417;-78
2024/01/08 01:52:13;;;;;;;9.03;4.87;;;-0.50;37.90;;;;;;5089419;28;20487;-79
2024/01/08 01:54:39;;;;;;;8.70;4.97;;;-0.40;38.70;;;;;;5092217;28;20409;-78
2024/01/08 01:57:05;;;;;;;9.32;4.95;;;-0.40;39.70;;;;;;5107617;28;20523;-78
2024/01/08 01:59:33;;;;;;;9.73;5.18;;;-0.40;40.30;;;;;;5093603;28;20407;-78
2024/01/08 02:02:00;;;;;;;9.23;5.45;;;-0.40;40.90;;;;;;5107706;28;20400;-78
2024/01/08 02:04:28;;;;;;;8.35;4.80;;;-0.40;41.50;;;;;;5107499;28;20431;-78
2024/01/08 02:06:56;;;;;;;8.82;4.90;;;-0.30;41.60;;;;;;5095157;28;20437;-79
2024/01/08 02:09:22;;;;;;;8.25;4.85;;;-0.30;41.20;;;;;;5102484;28;20404;-78
2024/01/08 02:11:48;;;;;;;8.82;5.00;;;-0.30;41.50;;;;;;5108256;28;20424;-78
2024/01/08 02:14:15;;;;;;;7.28;4.97;;;-0.30;41.90;;;;;;5105512;28;20427;-78
2024/01/08 02:16:41;;;;;;;7.07;4.47;;;-0.30;41.60;;;;;;5105778;28;20400;-78
2024/01/08 02:19:09;;;;;;;9.57;4.78;;;-0.30;41.30;;;;;;5101486;28;20447;-79
2024/01/08 02:21:34;;;;;;;10.52;5.05;;;-0.30;41.50;;;;;;5088531;28;20406;-78
2024/01/08 02:24:00;;;;;;;6.72;3.95;;;-0.30;39.60;;;;;;5092701;28;20405;-78
2024/01/08 02:26:26;;;;;;;8.65;4.30;;;-0.30;40.00;;;;;;5103569;28;20786;-78
2024/01/08 02:28:52;;;;;;;8.57;4.88;;;-0.30;39.90;;;;;;5106871;28;20432;-78
2024/01/08 02:31:19;;;;;;;10.80;4.80;;;-0.30;39.30;;;;;;5106954;28;20483;-78
2024/01/08 02:33:45;;;;;;;7.82;3.97;;;-0.20;37.90;;;;;;5107365;28;20435;-78
2024/01/08 02:36:11;;;;;;;7.45;4.30;;;-0.20;37.10;;;;;;5104129;28;20435;-78
2024/01/08 02:38:36;;;;;;;7.63;4.05;;;-0.20;36.20;;;;;;5105979;28;20408;-78
2024/01/08 02:41:02;;;;;;;8.00;4.27;;;-0.20;34.80;;;;;;5100150;28;20931;-78
2024/01/08 02:43:27;;;;;;;7.23;4.10;;;-0.20;32.70;;;;;;5098421;28;20420;-79
2024/01/08 02:45:53;;;;;;;7.10;3.90;;;-0.20;31.20;;;;;;5100007;28;20441;-78
2024/01/08 02:48:19;;;;;;;5.63;3.43;;;-0.20;29.80;;;;;;5086700;28;20394;-78
2024/01/08 02:50:44;;;;;;;6.03;3.83;;;-0.20;31.00;;;;;;5102370;28;20868;-79
2024/01/08 02:53:10;;;;;;;7.25;3.70;;;-0.20;30.30;;;;;;5106577;28;20393;-78
2024/01/08 02:55:35;;;;;;;7.25;3.47;;;-0.20;30.00;;;;;;5102465;28;20410;-78
2024/01/08 02:58:05;;;;;;;6.23;3.50;;;-0.20;30.80;;;;;;5078674;28;20405;-78
2024/01/08 03:00:31;;;;;;;6.07;3.35;;;-0.20;31.40;;;;;;5101865;28;20489;-78
2024/01/08 03:02:56;;;;;;;6.73;3.73;;;-0.20;31.50;;;;;;5105506;28;20458;-78
2024/01/08 03:05:22;;;;;;;7.50;3.70;;;-0.20;29.60;;;;;;5103864;28;20929;-78
2024/01/08 03:07:47;;;;;;;7.00;3.87;;;-0.20;29.20;;;;;;5096114;28;21067;-78
2024/01/08 03:10:13;;;;;;;6.82;3.63;;;-0.20;27.70;;;;;;5084119;28;20967;-78
2024/01/08 03:12:39;;;;;;;6.93;3.77;;;-0.20;28.60;;;;;;5105126;28;20400;-78
2024/01/08 03:15:05;;;;;;;9.53;3.37;;;-0.20;28.50;;;;;;5086213;28;21003;-78
2024/01/08 03:17:30;;;;;;;6.65;3.85;;;-0.20;29.80;;;;;;5088106;28;20461;-78
2024/01/08 03:19:56;;;;;;;7.17;3.90;;;-0.20;30.10;;;;;;5100883;28;20494;-79
2024/01/08 03:22:22;;;;;;;7.35;3.95;;;-0.20;28.70;;;;;;5102990;28;20396;-78
2024/01/08 03:24:48;;;;;;;6.83;4.07;;;-0.20;29.80;;;;;;5091305;28;20430;-78
2024/01/08 03:27:13;;;;;;;6.07;3.30;;;-0.20;30.80;;;;;;5089927;28;20788;-78
2024/01/08 03:29:40;;;;;;;6.00;3.20;;;-0.30;27.30;;;;;;5096078;28;20401;-78
2024/01/08 03:32:06;;;;;;;6.13;3.20;;;-0.30;21.40;;;;;;5094118;28;20394;-79
2024/01/08 03:34:32;;;;;;;7.97;3.70;;;-0.30;23.40;;;;;;5077797;28;20398;-78
2024/01/08 03:36:58;;;;;;;6.97;3.70;;;-0.30;22.50;;;;;;5093642;28;20397;-78
2024/01/08 03:39:25;;;;;;;8.45;3.85;;;-0.30;22.60;;;;;;5093675;28;20454;-79
2024/01/08 03:41:50;;;;;;;6.65;3.58;;;-0.30;25.80;;;;;;5093335;28;20409;-78
2024/01/08 03:44:16;;;;;;;7.75;3.70;;;-0.30;26.90;;;;;;5094725;28;20394;-78
2024/01/08 03:46:42;;;;;;;7.13;3.80;;;-0.30;27.30;;;;;;5093437;28;20928;-78
2024/01/08 03:49:08;;;;;;;6.38;3.40;;;-0.40;23.90;;;;;;5094038;28;20401;-78
2024/01/08 03:51:35;;;;;;;6.60;3.40;;;-0.40;18.50;;;;;;5074223;28;20413;-78
2024/01/08 03:54:01;;;;;;;6.07;3.13;;;-0.40;14.50;;;;;;5092350;28;20412;-78
2024/01/08 03:56:26;;;;;;;5.70;3.17;;;-0.50;18.40;;;;;;5092370;28;20934;-78
2024/01/08 03:58:52;;;;;;;6.33;2.83;;;-0.50;15.80;;;;;;5094186;28;20413;-78
2024/01/08 04:01:18;;;;;;;6.60;3.10;;;-0.50;17.00;;;;;;5110651;28;20535;-78
2024/01/08 04:03:43;;;;;;;5.10;3.03;;;-0.50;17.00;;;;;;5109944;28;20412;-78
2024/01/08 04:06:09;;;;;;;6.47;3.17;;;-0.50;19.10;;;;;;5110083;28;20447;-78
2024/01/08 04:08:35;;;;;;;5.27;2.60;;;-0.50;20.00;;;;;;5108134;28;20477;-78
2024/01/08 04:11:00;;;;;;;6.03;3.10;;;-0.50;19.50;;;;;;5109840;28;20438;-78
2024/01/08 04:13:26;;;;;;;5.22;2.55;;;-0.50;18.80;;;;;;5108405;28;20393;-78
2024/01/08 04:15:51;;;;;;;6.30;2.97;;;-0.50;16.10;;;;;;5109738;28;20404;-78
2024/01/08 04:18:17;;;;;;;5.78;3.00;;;-0.50;19.40;;;;;;5106846;28;20538;-78
2024/01/08 04:20:43;;;;;;;6.82;2.90;;;-0.50;18.40;;;;;;5108274;28;20405;-77
2024/01/08 04:23:09;;;;;;;5.97;3.20;;;-0.50;18.50;;;;;;5096080;28;20431;-78
2024/01/08 04:25:34;;;;;;;5.15;2.90;;;-0.60;19.80;;;;;;5109924;28;20428;-78
2024/01/08 04:28:00;;;;;;;6.07;2.93;;;-0.60;19.80;;;;;;5107870;28;21173;-78
2024/01/08 04:30:26;;;;;;;5.22;2.83;;;-0.60;19.10;;;;;;5109634;28;20476;-78
2024/01/08 04:32:52;;;;;;;5.15;2.80;;;-0.70;20.00;;;;;;5107641;28;20868;-78
2024/01/08 04:35:18;;;;;;;5.45;2.97;;;-0.80;19.50;;;;;;5109532;28;20766;-78
2024/01/08 04:37:43;;;;;;;5.23;2.90;;;-0.80;18.40;;;;;;5107925;28;20509;-78
2024/01/08 04:40:09;;;;;;;6.75;3.13;;;-0.80;20.30;;;;;;5108797;28;20449;-78
2024/01/08 04:42:35;;;;;;;6.50;3.28;;;-0.90;20.10;;;;;;5107929;28;20421;-78
2024/01/08 04:45:01;;;;;;;5.85;3.08;;;-0.90;20.80;;;;;;5109232;28;20424;-77
2024/01/08 04:47:26;;;;;;;5.63;3.10;;;-1.00;22.70;;;;;;5107801;28;20402;-78
2024/01/08 04:49:52;;;;;;;6.80;3.58;;;-1.00;23.40;;;;;;5108652;28;20393;-78
2024/01/08 04:52:17;;;;;;;6.18;2.90;;;-1.00;24.30;;;;;;5107567;28;20518;-78
2024/01/08 04:54:43;;;;;;;7.00;3.00;;;-1.10;24.30;;;;;;5109385;28;20404;-78
2024/01/08 04:57:11;;;;;;;5.70;2.80;;;-1.10;25.40;;;;;;5105468;28;20402;-77
2024/01/08 04:59:41;;;;;;;6.53;3.13;;;-1.10;26.20;;;;;;5098470;28;20849;-78
2024/01/08 05:02:08;;;;;;;6.93;2.90;;;-1.10;27.00;;;;;;5107796;28;20485;-78
2024/01/08 05:04:34;;;;;;;6.93;3.30;;;-1.10;28.00;;;;;;5109468;28;20435;-78
2024/01/08 05:06:59;;;;;;;6.22;3.03;;;-1.10;28.30;;;;;;5107591;28;20866;-77
2024/01/08 05:09:25;;;;;;;6.18;2.95;;;-1.10;29.60;;;;;;5108964;28;20449;-78
2024/01/08 05:11:50;;;;;;;6.73;3.30;;;-1.10;30.20;;;;;;5107261;28;20394;-78
2024/01/08 05:14:16;;;;;;;7.63;3.70;;;-1.10;30.90;;;;;;5108306;28;20798;-78
2024/01/08 05:16:42;;;;;;;6.05;3.20;;;-1.10;31.80;;;;;;5107251;28;20413;-77
2024/01/08 05:19:07;;;;;;;5.63;3.00;;;-1.00;33.70;;;;;;5107848;28;20950;-77
2024/01/08 05:21:33;;;;;;;7.80;3.70;;;-1.10;35.50;;;;;;5085808;28;20437;-77
2024/01/08 05:23:59;;;;;;;6.33;3.20;;;-1.10;37.40;;;;;;5099427;28;20400;-77
2024/01/08 05:26:25;;;;;;;7.00;3.60;;;-1.10;38.60;;;;;;5106390;28;20923;-77
2024/01/08 05:28:51;;;;;;;5.53;3.20;;;-1.10;41.10;;;;;;5108281;28;20404;-77
2024/01/08 05:31:17;;;;;;;7.13;3.30;;;-1.10;41.30;;;;;;5105317;28;20620;-77
2024/01/08 05:33:43;;;;;;;6.63;3.13;;;-1.10;42.30;;;;;;5107227;28;20491;-77
2024/01/08 05:36:09;;;;;;;6.13;2.80;;;-1.10;41.90;;;;;;5103543;28;20445;-77
2024/01/08 05:38:36;;;;;;;5.87;2.73;;;-1.10;41.90;;;;;;5105346;28;20426;-78
2024/01/08 05:41:01;;;;;;;8.90;2.97;;;-1.10;42.30;;;;;;5084887;28;20772;-78
2024/01/08 05:43:27;;;;;;;7.27;2.90;;;-1.10;42.90;;;;;;5097949;28;20398;-77
2024/01/08 05:45:53;;;;;;;6.18;3.03;;;-1.10;43.40;;;;;;5099686;28;20433;-77
2024/01/08 05:48:19;;;;;;;6.22;2.97;;;-1.10;44.80;;;;;;5105159;28;20513;-77
2024/01/08 05:50:46;;;;;;;6.60;3.07;;;-1.10;46.50;;;;;;5102571;28;20485;-77
2024/01/08 05:53:13;;;;;;;7.18;3.00;;;-1.10;47.60;;;;;;5105874;28;20412;-77
2024/01/08 05:55:38;;;;;;;7.85;2.90;;;-1.00;47.60;;;;;;5101611;28;20412;-77
2024/01/08 05:58:04;;;;;;;7.60;2.97;;;-1.00;48.70;;;;;;5096938;28;20402;-77
2024/01/08 06:00:29;;;;;;;6.70;3.00;;;-1.00;48.60;;;;;;5103568;28;20413;-77
2024/01/08 06:02:55;;;;;;;5.45;2.88;;;-0.90;49.60;;;;;;5107104;28;20399;-77
2024/01/08 06:05:21;;;;;;;6.32;3.10;;;-0.90;50.60;;;;;;5104925;28;20978;-77
2024/01/08 06:07:48;;;;;;;8.30;3.40;;;-0.80;51.20;;;;;;5106245;28;20399;-77
2024/01/08 06:10:14;;;;;;;8.88;3.25;;;-0.80;50.90;;;;;;5105737;28;20809;-77
2024/01/08 06:12:40;;;;;;;5.95;2.83;;;-0.80;51.40;;;;;;5098393;28;20398;-77
2024/01/08 06:15:06;;;;;;;8.45;2.97;;;-0.80;51.70;;;;;;5102294;28;20413;-77
2024/01/08 06:17:31;;;;;;;8.15;3.10;;;-0.70;52.30;;;;;;5107551;28;20732;-77
2024/01/08 06:19:57;;;;;;;7.63;2.80;;;-0.70;53.00;;;;;;5105489;28;20529;-77
2024/01/08 06:22:23;;;;;;;7.50;3.00;;;-0.70;53.10;;;;;;5105932;28;20918;-77
2024/01/08 06:24:49;;;;;;;7.65;3.00;;;-0.70;53.10;;;;;;5105982;28;20411;-77
2024/01/08 06:27:14;;;;;;;8.70;3.40;;;-0.60;53.80;;;;;;5097171;28;20402;-77
2024/01/08 06:29:40;;;;;;;9.00;3.17;;;-0.60;54.00;;;;;;5090010;28;20410;-77
2024/01/08 06:32:06;;;;;;;8.43;3.20;;;-0.60;53.90;;;;;;5097935;28;20497;-77
2024/01/08 06:34:31;;;;;;;6.88;3.05;;;-0.60;54.40;;;;;;5101201;28;20468;-77
2024/01/08 06:36:57;;;;;;;7.20;3.20;;;-0.60;55.10;;;;;;5106651;28;20411;-77
2024/01/08 06:39:24;;;;;;;7.65;3.25;;;-0.60;55.00;;;;;;5102283;28;20394;-77
2024/01/08 06:41:49;;;;;;;8.27;2.87;;;-0.60;54.70;;;;;;5096991;28;20447;-76
2024/01/08 06:44:15;;;;;;;6.60;2.90;;;-0.60;54.80;;;;;;5104934;28;20396;-77
2024/01/08 06:46:41;;;;;;;7.07;3.03;;;-0.50;54.80;;;;;;5106697;27;20416;-76
2024/01/08 06:49:08;;;;;;;5.72;2.95;;;-0.50;54.60;;;;;;5084756;28;20398;-76
2024/01/08 06:51:43;;;;;;;7.05;3.25;;;-0.50;54.90;;;;;;5106295;28;20407;-76
2024/01/08 06:54:08;;;;;;;6.15;2.97;;;-0.50;55.30;;;;;;5099758;28;20402;-77
2024/01/08 06:56:34;;;;;;;7.75;3.13;;;-0.50;56.00;;;;;;5097701;28;20800;-77
2024/01/08 06:59:01;;;;;;;8.10;3.33;;;-0.50;56.20;;;;;;5088355;28;20415;-77
2024/01/08 07:01:28;;;;;;;8.35;3.35;;;-0.50;57.20;;;;;;5075096;28;20438;-78
2024/01/08 07:03:53;;;;;;;8.82;3.22;;;-0.50;57.40;;;;;;5094150;28;20452;-77
2024/01/08 07:06:19;;;;;;;8.88;3.15;;;-0.50;57.30;;;;;;5096979;28;20520;-78
2024/01/08 07:08:45;;;;;;;6.63;2.83;;;-0.50;57.70;;;;;;5103303;28;20783;-78
2024/01/08 07:11:22;;;;;;;6.82;2.78;;;-0.40;58.00;;;;;;5104165;28;20404;-78
2024/01/08 07:13:49;;;;;;;6.95;3.00;;;-0.40;58.20;;;;;;5099622;28;20451;-78
2024/01/08 07:16:15;;;;;;;6.70;3.22;;;-0.40;58.40;;;;;;5098498;28;20413;-78
2024/01/08 07:18:41;;;;;;;8.10;3.17;;;-0.40;58.80;;;;;;5087311;28;20453;-78
2024/01/08 07:21:07;;;;;;;9.13;3.60;;;-0.40;58.80;;;;;;5092947;28;20432;-78
2024/01/08 07:23:35;;;;;;;7.77;3.17;;;-0.40;58.60;;;;;;5094016;28;20432;-78
2024/01/08 07:26:01;;;;;;;7.13;3.25;;;-0.40;58.60;;;;;;5093250;28;20533;-78
2024/01/08 07:28:28;;;;;;;7.13;3.10;;;-0.40;58.50;;;;;;5093548;28;20413;-77
2024/01/08 07:30:54;;;;;;;8.17;3.07;;;-0.40;59.30;;;;;;5096194;28;20506;-78
2024/01/08 07:33:21;;;;;;;6.33;2.67;;;-0.30;59.60;;;;;;5100637;28;20474;-78
2024/01/08 07:35:46;;;;;;;6.38;2.80;;;-0.30;59.10;;;;;;5086344;28;20447;-78
2024/01/08 07:38:12;;;;;;;6.75;2.92;;;-0.30;59.20;;;;;;5097766;28;20414;-78
2024/01/08 07:40:38;;;;;;;8.55;2.53;;;-0.30;59.40;;;;;;5103585;28;20392;-78
2024/01/08 07:43:03;;;;;;;6.80;2.80;;;-0.30;59.70;;;;;;5072579;28;20967;-78
2024/01/08 07:45:29;;;;;;;8.20;2.40;;;-0.20;60.20;;;;;;5094247;28;20447;-78
2024/01/08 07:47:56;;;;;;;7.57;3.00;;;-0.20;60.00;;;;;;5098367;28;20782;-78
2024/01/08 07:50:22;;;;;;;6.80;2.65;;;-0.20;59.80;;;;;;5098562;28;20927;-78
2024/01/08 07:52:48;;;;;;;7.77;2.60;;;-0.20;59.40;;;;;;5099611;28;20445;-78
2024/01/08 07:55:13;;;;;;;8.02;2.65;;;-0.20;58.90;;;;;;5096782;28;20425;-78
2024/01/08 07:57:39;;;;;;;7.28;2.97;;;-0.20;58.90;;;;;;5092344;28;20394;-78
2024/01/08 08:00:09;;;;;;;7.78;2.60;;;-0.20;59.00;;;;;;5086768;28;20413;-78
2024/01/08 08:02:35;;;;;;;5.93;2.40;;;-0.10;58.80;;;;;;5103999;28;20937;-78
2024/01/08 08:05:01;;;;;;;7.15;2.75;;;-0.10;58.10;;;;;;5092294;28;20959;-78
2024/01/08 08:07:28;;;;;;;8.02;2.65;;;-0.10;57.20;;;;;;5085717;28;20555;-78
2024/01/08 08:09:54;;;;;;;8.97;2.53;;;-0.10;56.60;;;;;;5097421;28;20499;-78
2024/01/08 08:12:20;;;;;;;8.13;2.45;;;-0.10;56.80;;;;;;5092471;28;20417;-78
2024/01/08 08:14:48;;;;;;;5.75;2.20;;;-0.10;57.00;;;;;;5105365;28;20423;-78
2024/01/08 08:17:14;;;;;;;7.07;2.22;;;0.00;56.10;;;;;;5073490;28;20508;-77
2024/01/08 08:19:44;;;;;;;6.90;2.40;;;0.00;56.10;;;;;;5092208;28;21010;-78
2024/01/08 08:22:11;;;;;;;7.00;1.92;;;0.00;55.30;;;;;;5091090;28;20452;-77
2024/01/08 08:24:40;;;;;;;6.45;2.50;;;0.00;53.00;;;;;;5093263;28;20398;-77
2024/01/08 08:27:10;;;;;;;6.28;1.83;;;0.10;52.90;;;;;;5090006;28;20444;-77
2024/01/08 08:29:41;;;;;;;8.20;2.00;;;0.10;51.60;;;;;;5091691;28;20402;-77
2024/01/08 08:32:07;;;;;;;5.35;1.70;;;0.10;48.30;;;;;;5091666;28;20911;-78
2024/01/08 08:34:33;;;;;;;5.28;1.73;;;0.10;46.50;;;;;;5090436;28;20402;-77
2024/01/08 08:36:59;;;;;;;6.30;1.73;;;0.20;45.20;;;;;;5070866;28;20484;-78
2024/01/08 08:39:24;;;;;;;6.38;1.90;;;0.20;45.60;;;;;;5091053;28;20829;-78
2024/01/08 08:41:50;;;;;;;5.30;2.10;;;0.20;42.30;;;;;;5089969;28;20425;-77
2024/01/08 08:44:17;;;;;;;7.45;1.85;;;0.20;41.80;;;;;;5091145;28;20394;-78
2024/01/08 08:46:44;;;;;;;6.32;2.00;;;0.20;39.70;;;;;;5073352;28;20437;-77
2024/01/08 08:49:10;;;;;;;4.88;1.90;;;0.30;40.00;;;;;;5090224;28;20410;-77
2024/01/08 08:51:36;;;;;;;5.70;1.75;;;0.30;38.70;;;;;;5092569;28;20422;-77
2024/01/08 08:54:03;;;;;;;7.50;2.20;;;0.30;40.50;;;;;;5088303;28;20402;-78
2024/01/08 08:56:35;;;;;;;7.60;2.00;;;0.30;39.80;;;;;;5087540;28;20926;-77
2024/01/08 08:59:01;;;;;;;5.05;1.75;;;0.30;35.30;;;;;;5087765;28;20476;-78
2024/01/08 09:01:27;;;;;;;5.00;1.60;;;0.30;35.50;;;;;;5094648;28;20472;-77
2024/01/08 09:03:53;;;;;;;7.97;2.38;;;0.30;35.50;;;;;;5098193;28;21555;-78
2024/01/08 09:06:27;;;;;;;5.13;2.22;;;0.30;33.00;;;;;;5091840;28;20517;-78
2024/01/08 09:08:54;;;;;;;6.47;1.95;;;0.30;32.40;;;;;;5107199;28;20404;-77
2024/01/08 09:11:20;;;;;;;5.28;1.98;;;0.40;30.40;;;;;;5107864;28;20449;-77
2024/01/08 09:13:49;;;;;;;6.20;1.85;;;0.30;23.40;;;;;;5093791;28;20479;-77
2024/01/08 09:16:15;;;;;;;7.75;2.20;;;0.40;28.50;;;;;;5109146;28;20762;-77
2024/01/08 09:18:42;;;;;;;6.18;1.88;;;0.40;28.10;;;;;;5095145;28;20436;-77
2024/01/08 09:21:08;;;;;;;5.40;1.90;;;0.40;27.40;;;;;;5094437;28;20772;-77
2024/01/08 09:23:34;;;;;;;4.90;1.70;;;0.40;26.30;;;;;;5102673;28;20921;-77
2024/01/08 09:26:00;;;;;;;4.87;2.20;;;0.40;23.70;;;;;;5108886;28;20416;-78
2024/01/08 09:28:25;;;;;;;5.47;1.55;;;0.40;19.30;;;;;;5096349;28;20530;-78
2024/01/08 09:30:52;;;;;;;4.97;2.00;;;0.40;20.30;;;;;;5109500;28;20909;-78
2024/01/08 09:33:18;;;;;;;6.93;1.95;;;0.40;20.30;;;;;;5108419;28;20483;-78
2024/01/08 09:35:44;;;;;;;5.07;1.85;;;0.50;14.30;;;;;;5108142;28;21079;-77
2024/01/08 09:38:09;;;;;;;4.43;1.87;;;0.50;20.90;;;;;;5106856;28;20409;-78
2024/01/08 09:40:36;;;;;;;5.30;1.90;;;0.50;16.50;;;;;;5099053;28;20410;-77
2024/01/08 09:43:06;;;;;;;8.90;2.00;;;0.40;18.30;;;;;;5106026;28;20432;-78
2024/01/08 09:45:32;;;;;;;4.10;2.08;;;0.50;19.40;;;;;;5106346;28;20477;-78
2024/01/08 09:47:58;;;;;;;4.90;2.35;;;0.50;21.70;;;;;;5106383;28;20397;-78
2024/01/08 09:50:24;;;;;;;5.95;2.00;;;0.50;19.70;;;;;;5104914;28;20461;-77
2024/01/08 09:52:52;;;;;;;5.05;1.80;;;0.50;14.40;;;;;;5089716;28;20772;-78
2024/01/08 09:55:18;;;;;;;5.88;1.92;;;0.50;13.30;;;;;;5087860;28;20943;-78
2024/01/08 09:57:44;;;;;;;6.13;2.33;;;0.50;16.00;;;;;;5098240;28;20433;-78
2024/01/08 10:00:11;;;;;;;6.20;1.77;;;0.50;17.60;;;;;;5100154;28;20462;-78
2024/01/08 10:02:36;;;;;;;6.20;1.60;;;0.50;18.20;;;;;;5083190;28;20913;-77
2024/01/08 10:05:02;;;;;;;5.53;2.22;;;0.50;14.70;;;;;;5094172;28;20477;-78
2024/01/08 10:07:33;;;;;;;6.00;1.92;;;0.50;13.30;;;;;;5103402;28;20427;-78
2024/01/08 10:10:00;;;;;;;7.43;1.65;;;0.50;13.40;;;;;;5100206;28;20487;-79
2024/01/08 10:12:26;;;;;;;4.90;2.20;;;0.60;10.20;;;;;;5089806;28;20429;-78
2024/01/08 10:14:53;;;;;;;4.43;1.83;;;0.50;6.20;;;;;;5087218;28;20433;-78
2024/01/08 10:17:22;;;;;;;6.93;1.90;;;0.60;1.00;;;;;;5076720;28;20489;-78
2024/01/08 10:19:48;;;;;;;4.47;2.22;;;0.50;1.00;;;;;;5096549;28;20422;-78
2024/01/08 10:22:14;;;;;;;5.85;2.10;;;0.60;1.00;;;;;;5105721;28;20412;-78
2024/01/08 10:24:42;;;;;;;5.95;2.40;;;0.60;1.00;;;;;;5092280;28;20998;-78
2024/01/08 10:27:09;;;;;;;4.53;1.95;;;0.60;1.00;;;;;;5087875;28;20426;-78
2024/01/08 10:29:36;;;;;;;4.53;1.75;;;0.60;1.00;;;;;;5086606;28;20433;-77
2024/01/08 10:32:02;;;;;;;7.85;2.42;;;0.70;1.00;;;;;;5102900;28;20419;-78
2024/01/08 10:34:29;;;;;;;5.55;2.03;;;0.70;1.00;;;;;;5100241;28;20422;-78
2024/01/08 10:36:57;;;;;;;4.43;1.70;;;0.70;1.00;;;;;;5097031;28;20422;-79
2024/01/08 10:39:22;;;;;;;5.10;2.08;;;0.70;1.00;;;;;;5086176;28;20450;-79
2024/01/08 10:41:49;;;;;;;4.00;1.73;;;0.70;1.00;;;;;;5094321;28;20447;-78
2024/01/08 10:44:15;;;;;;;5.40;1.87;;;0.70;1.00;;;;;;5101080;28;20818;-78
2024/01/08 10:47:10;;;;;;;3.83;2.00;;;0.70;1.00;;;;;;5090513;28;20436;-78
2024/01/08 10:49:36;;;;;;;6.75;2.20;;;0.80;1.00;;;;;;5095937;28;20416;-78
2024/01/08 10:52:38;;;;;;;4.32;2.00;;;0.80;1.00;;;;;;5090683;28;20417;-78
2024/01/08 10:55:06;;;;;;;7.38;2.13;;;0.90;1.00;;;;;;5057825;28;20436;-78
2024/01/08 10:57:42;;;;;;;4.25;2.40;;;0.80;1.00;;;;;;5086800;28;20410;-78
2024/01/08 11:00:12;;;;;;;8.95;2.03;;;0.90;1.00;;;;;;5094937;28;20416;-78
2024/01/08 11:02:39;;;;;;;7.43;1.95;;;0.90;1.00;;;;;;5082938;28;20428;-78
2024/01/08 11:05:08;;;;;;;3.83;1.70;;;0.90;1.00;;;;;;5088580;28;20835;-78
2024/01/08 11:07:38;;;;;;;6.22;2.00;;;0.80;1.00;;;;;;5099272;28;20460;-78
2024/01/08 11:10:06;;;;;;;5.82;1.75;;;0.80;1.00;;;;;;5085381;28;20429;-79
2024/01/08 11:12:36;;;;;;;4.25;1.77;;;0.80;1.00;;;;;;5086879;28;20787;-77
2024/01/08 11:15:03;;;;;;;3.83;1.80;;;0.80;1.00;;;;;;5085401;28;20439;-79
2024/01/08 11:17:29;;;;;;;3.83;1.50;;;0.90;1.00;;;;;;5086177;28;20426;-78
2024/01/08 11:19:57;;;;;;;5.40;1.70;;;1.10;1.00;;;;;;5089112;28;20418;-78
2024/01/08 11:22:23;;;;;;;5.78;1.83;;;1.10;1.00;;;;;;5091963;28;20417;-78
2024/01/08 11:24:49;;;;;;;3.50;1.52;;;1.00;1.00;;;;;;5084563;28;20433;-82
2024/01/08 11:27:20;;;;;;;4.30;1.90;;;1.00;1.00;;;;;;5085039;28;21006;-78
2024/01/08 11:29:58;;;;;;;6.27;1.87;;;0.90;1.00;;;;;;5091296;28;20484;-78
2024/01/08 11:32:42;;;;;;;4.00;1.50;;;0.90;1.00;;;;;;5083181;28;20413;-78
2024/01/08 11:35:13;;;;;;;3.85;1.60;;;0.80;1.00;;;;;;5083417;28;20563;-78
2024/01/08 11:37:42;;;;;;;3.85;1.40;;;0.80;1.00;;;;;;5087873;28;20424;-77
2024/01/08 11:40:18;;;;;;;4.97;1.83;;;0.90;1.00;;;;;;5091943;28;20468;-78
2024/01/08 11:42:49;;;;;;;4.57;2.28;;;0.90;1.00;;;;;;5092333;28;20447;-78
2024/01/08 11:45:16;;;;;;;3.83;1.70;;;1.00;1.00;;;;;;5090580;28;22324;-77
2024/01/08 11:47:42;;;;;;;4.10;2.10;;;0.90;1.00;;;;;;5096647;28;20924;-78
2024/01/08 11:50:08;;;;;;;5.03;1.87;;;0.90;1.00;;;;;;5099685;28;20447;-78
2024/01/08 11:52:37;;;;;;;4.75;1.80;;;0.90;1.00;;;;;;5107744;28;20480;-78
2024/01/08 11:55:04;;;;;;;6.32;2.20;;;0.90;1.00;;;;;;5088592;28;20424;-79
2024/01/08 11:57:31;;;;;;;5.32;1.85;;;0.90;1.00;;;;;;5096475;28;20441;-78
2024/01/08 11:59:57;;;;;;;4.22;1.60;;;0.90;1.00;;;;;;5101354;28;20408;-78
2024/01/08 12:02:24;;;;;;;4.22;1.70;;;0.90;1.00;;;;;;5107689;28;20419;-78
2024/01/08 12:04:58;;;;;;;3.85;1.70;;;1.00;1.00;;;;;;5091749;28;20405;-78
2024/01/08 12:07:28;;;;;;;4.82;1.90;;;1.00;1.00;;;;;;5107993;28;20459;-78
2024/01/08 12:09:55;;;;;;;3.83;1.65;;;1.00;1.00;;;;;;5110131;28;20404;-78
2024/01/08 12:12:24;;;;;;;5.80;1.70;;;0.90;1.00;;;;;;5097954;28;20404;-78
2024/01/08 12:14:51;;;;;;;4.68;1.98;;;0.90;1.00;;;;;;5096291;28;20424;-78
2024/01/08 12:17:18;;;;;;;3.58;1.42;;;0.90;1.00;;;;;;5109133;28;20408;-78
2024/01/08 12:19:54;;;;;;;4.43;2.28;;;0.90;1.00;;;;;;5108695;28;20401;-77
2024/01/08 12:22:21;;;;;;;7.13;1.83;;;0.80;1.00;;;;;;5109792;28;20404;-78
2024/01/08 12:24:49;;;;;;;4.90;1.60;;;0.80;1.00;;;;;;5109726;28;20834;-78
2024/01/08 12:27:17;;;;;;;4.35;1.80;;;0.70;1.00;;;;;;5081604;28;20440;-78
2024/01/08 12:29:44;;;;;;;5.50;1.55;;;0.70;1.00;;;;;;5088778;28;20418;-78
2024/01/08 12:32:13;;;;;;;5.78;1.83;;;0.60;1.00;;;;;;5089187;28;20406;-78
2024/01/08 12:34:42;;;;;;;5.65;1.77;;;0.70;1.00;;;;;;5087785;28;20402;-78
2024/01/08 12:37:08;;;;;;;5.88;2.03;;;0.90;1.00;;;;;;5089999;28;20413;-78
2024/01/08 12:39:34;;;;;;;5.65;2.22;;;0.90;1.00;;;;;;5090178;28;20401;-78
2024/01/08 12:42:02;;;;;;;6.93;2.13;;;0.90;1.00;;;;;;5090880;28;20485;-78
2024/01/08 12:44:32;;;;;;;4.75;1.95;;;0.90;1.00;;;;;;5102487;28;20406;-78
2024/01/08 12:47:00;;;;;;;3.88;1.85;;;1.00;1.00;;;;;;5089282;28;20499;-78
2024/01/08 12:49:25;;;;;;;6.73;2.40;;;0.90;1.00;;;;;;5090587;28;20397;-77